createdAt,value
2017-12-10T00:00:19.581Z,-1.9
2017-12-10T00:01:26.800Z,-1.8
2017-12-10T00:02:33.984Z,-1.8
2017-12-10T00:03:40.897Z,-1.8
2017-12-10T00:04:48.083Z,-1.8
2017-12-10T00:05:55.267Z,-1.8
2017-12-10T00:07:02.457Z,-1.8
2017-12-10T00:08:09.376Z,-1.8
2017-12-10T00:09:16.288Z,-1.8
2017-12-10T00:10:23.479Z,-1.8
2017-12-10T00:11:30.661Z,-1.8
2017-12-10T00:12:37.565Z,-1.8
2017-12-10T00:13:44.754Z,-1.8
2017-12-10T00:14:51.590Z,-1.8
2017-12-10T00:15:58.784Z,-1.7
2017-12-10T00:17:05.978Z,-1.7
2017-12-10T00:18:13.374Z,-1.7
2017-12-10T00:19:20.282Z,-1.7
2017-12-10T00:20:27.471Z,-1.7
2017-12-10T00:21:34.384Z,-1.7
2017-12-10T00:22:41.572Z,-1.7
2017-12-10T00:23:48.753Z,-1.7
2017-12-10T00:24:55.939Z,-1.7
2017-12-10T00:26:03.120Z,-1.7
2017-12-10T00:27:10.031Z,-1.7
2017-12-10T00:28:16.933Z,-1.7
2017-12-10T00:29:38.767Z,-1.7
2017-12-10T00:30:45.956Z,-1.7
2017-12-10T00:31:53.139Z,-1.6
2017-12-10T00:33:00.328Z,-1.6
2017-12-10T00:34:07.240Z,-1.6
2017-12-10T00:35:14.424Z,-1.6
2017-12-10T00:36:21.338Z,-1.6
2017-12-10T00:37:28.521Z,-1.6
2017-12-10T00:38:35.441Z,-1.5
2017-12-10T00:39:42.618Z,-1.5
2017-12-10T00:40:49.804Z,-1.5
2017-12-10T00:41:56.711Z,-1.5
2017-12-10T00:43:03.896Z,-1.5
2017-12-10T00:44:11.082Z,-1.5
2017-12-10T00:45:18.267Z,-1.5
2017-12-10T00:46:25.454Z,-1.5
2017-12-10T00:47:32.639Z,-1.5
2017-12-10T00:48:39.864Z,-1.5
2017-12-10T00:49:46.767Z,-1.5
2017-12-10T00:50:53.954Z,-1.5
2017-12-10T00:52:01.148Z,-1.5
2017-12-10T00:53:08.334Z,-1.5
2017-12-10T00:54:15.521Z,-1.5
2017-12-10T00:55:22.703Z,-1.5
2017-12-10T00:56:29.893Z,-1.6
2017-12-10T00:57:36.798Z,-1.6
2017-12-10T00:58:43.703Z,-1.6
2017-12-10T00:59:50.894Z,-1.6
2017-12-10T01:01:12.723Z,-1.7
2017-12-10T01:02:19.847Z,-1.7
2017-12-10T01:03:27.037Z,-1.7
2017-12-10T01:04:34.227Z,-1.7
2017-12-10T01:05:41.413Z,-1.7
2017-12-10T01:06:48.319Z,-1.7
2017-12-10T01:07:55.502Z,-1.7
2017-12-10T01:09:02.411Z,-1.8
2017-12-10T01:10:09.598Z,-1.8
2017-12-10T01:11:16.782Z,-1.8
2017-12-10T01:12:23.968Z,-1.8
2017-12-10T01:13:31.156Z,-1.8
2017-12-10T01:14:38.340Z,-1.8
2017-12-10T01:15:45.263Z,-1.8
2017-12-10T01:16:52.169Z,-1.8
2017-12-10T01:17:59.352Z,-1.8
2017-12-10T01:19:06.560Z,-1.8
2017-12-10T01:20:13.194Z,-1.9
2017-12-10T01:21:20.384Z,-1.9
2017-12-10T01:22:27.571Z,-1.9
2017-12-10T01:23:34.216Z,-1.9
2017-12-10T01:24:41.396Z,-1.9
2017-12-10T01:25:48.310Z,-1.9
2017-12-10T01:26:54.948Z,-1.9
2017-12-10T01:28:02.134Z,-1.9
2017-12-10T01:29:09.320Z,-1.9
2017-12-10T01:30:16.504Z,-2
2017-12-10T01:31:23.699Z,-2
2017-12-10T01:32:30.882Z,-2
2017-12-10T01:33:38.070Z,-2
2017-12-10T01:34:45.263Z,-2
2017-12-10T01:35:52.444Z,-2
2017-12-10T01:36:59.638Z,-2
2017-12-10T01:38:06.551Z,-2
2017-12-10T01:39:13.458Z,-2
2017-12-10T01:40:20.367Z,-1.9
2017-12-10T01:41:27.554Z,-2
2017-12-10T01:42:34.738Z,-2
2017-12-10T01:43:41.928Z,-2
2017-12-10T01:44:48.852Z,-2
2017-12-10T01:45:55.771Z,-2
2017-12-10T01:47:02.961Z,-2
2017-12-10T01:48:09.873Z,-2
2017-12-10T01:49:17.060Z,-2
2017-12-10T01:50:24.243Z,-2
2017-12-10T01:51:31.221Z,-2
2017-12-10T01:52:38.407Z,-2
2017-12-10T01:53:45.592Z,-2
2017-12-10T01:54:52.774Z,-2.1
2017-12-10T01:55:59.963Z,-2.1
2017-12-10T01:57:07.163Z,-2.1
2017-12-10T01:58:14.100Z,-2.1
2017-12-10T01:59:21.289Z,-2.1
2017-12-10T02:00:28.191Z,-2.2
2017-12-10T02:01:35.419Z,-2.2
2017-12-10T02:02:42.060Z,-2.2
2017-12-10T02:03:49.242Z,-2.2
2017-12-10T02:04:56.433Z,-2.2
2017-12-10T02:06:03.067Z,-2.2
2017-12-10T02:07:09.739Z,-2.2
2017-12-10T02:08:16.646Z,-2.2
2017-12-10T02:09:23.830Z,-2.2
2017-12-10T02:10:31.018Z,-2.2
2017-12-10T02:11:38.199Z,-2.2
2017-12-10T02:12:45.110Z,-2.3
2017-12-10T02:13:52.303Z,-2.3
2017-12-10T02:14:59.482Z,-2.3
2017-12-10T02:16:06.395Z,-2.3
2017-12-10T02:17:13.027Z,-2.3
2017-12-10T02:18:19.936Z,-2.3
2017-12-10T02:19:26.850Z,-2.3
2017-12-10T02:20:34.040Z,-2.3
2017-12-10T02:21:41.218Z,-2.3
2017-12-10T02:22:48.403Z,-2.3
2017-12-10T02:23:55.315Z,-2.3
2017-12-10T02:25:02.504Z,-2.2
2017-12-10T02:26:09.693Z,-2.2
2017-12-10T02:27:16.875Z,-2.2
2017-12-10T02:28:23.506Z,-2.2
2017-12-10T02:29:30.688Z,-2.2
2017-12-10T02:30:37.876Z,-2.2
2017-12-10T02:31:44.789Z,-2.2
2017-12-10T02:32:51.702Z,-2.3
2017-12-10T02:33:58.604Z,-2.2
2017-12-10T02:35:05.510Z,-2.2
2017-12-10T02:36:12.695Z,-2.2
2017-12-10T02:37:19.884Z,-2.2
2017-12-10T02:38:27.064Z,-2.2
2017-12-10T02:39:34.245Z,-2.2
2017-12-10T02:40:41.431Z,-2.2
2017-12-10T02:41:48.063Z,-2.2
2017-12-10T02:42:55.245Z,-2.2
2017-12-10T02:44:02.426Z,-2.2
2017-12-10T02:45:09.610Z,-2.2
2017-12-10T02:46:16.798Z,-2.2
2017-12-10T02:47:23.983Z,-2.2
2017-12-10T02:48:31.165Z,-2.2
2017-12-10T02:49:38.073Z,-2.2
2017-12-10T02:50:45.258Z,-2.2
2017-12-10T02:51:51.894Z,-2.2
2017-12-10T02:52:59.083Z,-2.2
2017-12-10T02:54:06.270Z,-2.3
2017-12-10T02:55:13.457Z,-2.3
2017-12-10T02:56:20.415Z,-2.3
2017-12-10T02:57:27.616Z,-2.3
2017-12-10T02:58:34.251Z,-2.3
2017-12-10T02:59:41.442Z,-2.2
2017-12-10T03:00:48.344Z,-2.3
2017-12-10T03:01:55.534Z,-2.3
2017-12-10T03:03:02.437Z,-2.2
2017-12-10T03:04:09.620Z,-2.2
2017-12-10T03:05:16.533Z,-2.2
2017-12-10T03:06:23.452Z,-2.2
2017-12-10T03:07:30.640Z,-2.3
2017-12-10T03:08:37.827Z,-2.3
2017-12-10T03:09:45.014Z,-2.2
2017-12-10T03:10:52.200Z,-2.3
2017-12-10T03:11:59.386Z,-2.3
2017-12-10T03:13:06.570Z,-2.3
2017-12-10T03:14:13.484Z,-2.3
2017-12-10T03:15:20.670Z,-2.3
2017-12-10T03:16:27.858Z,-2.3
2017-12-10T03:17:35.042Z,-2.2
2017-12-10T03:18:42.264Z,-2.2
2017-12-10T03:19:49.450Z,-2.2
2017-12-10T03:20:56.638Z,-2.2
2017-12-10T03:22:03.314Z,-2.2
2017-12-10T03:23:10.492Z,-2.2
2017-12-10T03:24:17.685Z,-2.2
2017-12-10T03:25:24.869Z,-2.2
2017-12-10T03:26:32.056Z,-2.2
2017-12-10T03:27:38.967Z,-2.2
2017-12-10T03:28:46.175Z,-2.2
2017-12-10T03:29:53.356Z,-2.2
2017-12-10T03:31:00.543Z,-2.2
2017-12-10T03:32:07.724Z,-2.2
2017-12-10T03:33:14.912Z,-2.2
2017-12-10T03:34:21.819Z,-2.2
2017-12-10T03:35:29.006Z,-2.2
2017-12-10T03:36:36.197Z,-2.2
2017-12-10T03:37:43.404Z,-2.2
2017-12-10T03:38:50.313Z,-2.2
2017-12-10T03:39:57.226Z,-2.2
2017-12-10T03:41:04.403Z,-2.2
2017-12-10T03:42:11.630Z,-2.2
2017-12-10T03:43:18.537Z,-2.2
2017-12-10T03:44:25.723Z,-2.2
2017-12-10T03:45:32.901Z,-2.2
2017-12-10T03:46:39.807Z,-2.2
2017-12-10T03:47:46.716Z,-2.2
2017-12-10T03:48:53.902Z,-2.2
2017-12-10T03:50:00.807Z,-2.2
2017-12-10T03:51:07.992Z,-2.2
2017-12-10T03:52:15.176Z,-2.2
2017-12-10T03:53:21.806Z,-2.2
2017-12-10T03:54:28.991Z,-2.2
2017-12-10T03:55:35.628Z,-2.2
2017-12-10T03:56:42.534Z,-2.2
2017-12-10T03:57:49.445Z,-2.2
2017-12-10T03:58:56.626Z,-2.3
2017-12-10T04:00:03.810Z,-2.3
2017-12-10T04:01:10.993Z,-2.2
2017-12-10T04:02:18.178Z,-2.2
2017-12-10T04:03:25.378Z,-2.3
2017-12-10T04:04:32.010Z,-2.2
2017-12-10T04:05:38.920Z,-2.2
2017-12-10T04:06:46.104Z,-2.2
2017-12-10T04:07:53.010Z,-2.2
2017-12-10T04:09:00.195Z,-2.2
2017-12-10T04:10:07.381Z,-2.2
2017-12-10T04:11:14.567Z,-2.2
2017-12-10T04:12:21.776Z,-2.2
2017-12-10T04:13:28.965Z,-2.2
2017-12-10T04:14:36.142Z,-2.2
2017-12-10T04:15:43.048Z,-2.2
2017-12-10T04:16:50.234Z,-2.2
2017-12-10T04:17:57.141Z,-2.2
2017-12-10T04:19:04.060Z,-2.2
2017-12-10T04:20:10.966Z,-2.2
2017-12-10T04:21:18.155Z,-2.2
2017-12-10T04:22:25.359Z,-2.2
2017-12-10T04:23:32.269Z,-2.2
2017-12-10T04:24:39.706Z,-2.2
2017-12-10T04:25:46.892Z,-2.2
2017-12-10T04:26:54.077Z,-2.2
2017-12-10T04:28:00.984Z,-2.2
2017-12-10T04:29:08.172Z,-2.2
2017-12-10T04:30:15.080Z,-2.2
2017-12-10T04:31:22.266Z,-2.2
2017-12-10T04:32:29.456Z,-2.2
2017-12-10T04:33:36.649Z,-2.2
2017-12-10T04:34:43.837Z,-2.2
2017-12-10T04:35:51.022Z,-2.2
2017-12-10T04:36:58.207Z,-2.2
2017-12-10T04:38:05.392Z,-2.2
2017-12-10T04:39:12.299Z,-2.2
2017-12-10T04:40:19.482Z,-2.2
2017-12-10T04:41:26.401Z,-2.2
2017-12-10T04:42:33.306Z,-2.2
2017-12-10T04:43:39.944Z,-2.2
2017-12-10T04:44:46.846Z,-2.2
2017-12-10T04:45:54.032Z,-2.2
2017-12-10T04:47:01.217Z,-2.2
2017-12-10T04:48:08.403Z,-2.2
2017-12-10T04:49:29.963Z,-2.2
2017-12-10T04:50:37.153Z,-2.2
2017-12-10T04:51:44.338Z,-2.2
2017-12-10T04:52:51.523Z,-2.2
2017-12-10T04:53:58.719Z,-2.2
2017-12-10T04:55:05.657Z,-2.2
2017-12-10T04:56:12.303Z,-2.2
2017-12-10T04:57:19.224Z,-2.2
2017-12-10T04:58:26.411Z,-2.2
2017-12-10T04:59:33.318Z,-2.2
2017-12-10T05:00:40.264Z,-2.2
2017-12-10T05:01:47.176Z,-2.2
2017-12-10T05:02:54.089Z,-2.2
2017-12-10T05:04:01.273Z,-2.2
2017-12-10T05:05:08.187Z,-2.2
2017-12-10T05:06:15.101Z,-2.2
2017-12-10T05:07:22.286Z,-2.2
2017-12-10T05:08:29.468Z,-2.2
2017-12-10T05:09:36.653Z,-2.2
2017-12-10T05:10:43.840Z,-2.2
2017-12-10T05:11:51.026Z,-2.2
2017-12-10T05:12:58.215Z,-2.2
2017-12-10T05:14:05.405Z,-2.2
2017-12-10T05:15:12.615Z,-2.2
2017-12-10T05:16:19.800Z,-2.2
2017-12-10T05:17:26.985Z,-2.3
2017-12-10T05:18:33.890Z,-2.3
2017-12-10T05:19:41.074Z,-2.3
2017-12-10T05:20:47.990Z,-2.3
2017-12-10T05:21:55.171Z,-2.3
2017-12-10T05:23:02.360Z,-2.3
2017-12-10T05:24:09.271Z,-2.3
2017-12-10T05:25:16.458Z,-2.3
2017-12-10T05:26:23.641Z,-2.3
2017-12-10T05:27:30.827Z,-2.3
2017-12-10T05:28:37.741Z,-2.3
2017-12-10T05:29:44.928Z,-2.3
2017-12-10T05:30:52.115Z,-2.3
2017-12-10T05:31:59.029Z,-2.2
2017-12-10T05:33:06.216Z,-2.3
2017-12-10T05:34:13.162Z,-2.3
2017-12-10T05:35:20.075Z,-2.3
2017-12-10T05:36:26.983Z,-2.3
2017-12-10T05:37:34.169Z,-2.3
2017-12-10T05:38:41.350Z,-2.3
2017-12-10T05:39:48.257Z,-2.3
2017-12-10T05:40:55.167Z,-2.3
2017-12-10T05:42:02.345Z,-2.3
2017-12-10T05:43:09.263Z,-2.3
2017-12-10T05:44:16.446Z,-2.3
2017-12-10T05:45:23.626Z,-2.3
2017-12-10T05:46:30.534Z,-2.3
2017-12-10T05:47:37.445Z,-2.3
2017-12-10T05:48:44.632Z,-2.3
2017-12-10T05:49:51.819Z,-2.3
2017-12-10T05:50:59.017Z,-2.3
2017-12-10T05:52:06.206Z,-2.3
2017-12-10T05:53:13.394Z,-2.3
2017-12-10T05:54:20.576Z,-2.3
2017-12-10T05:55:27.487Z,-2.3
2017-12-10T05:56:34.674Z,-2.3
2017-12-10T05:57:41.862Z,-2.3
2017-12-10T05:58:48.771Z,-2.3
2017-12-10T05:59:55.953Z,-2.3
2017-12-10T06:01:02.902Z,-2.3
2017-12-10T06:02:10.092Z,-2.3
2017-12-10T06:03:17.268Z,-2.3
2017-12-10T06:04:24.455Z,-2.3
2017-12-10T06:05:31.640Z,-2.3
2017-12-10T06:06:38.829Z,-2.3
2017-12-10T06:07:46.011Z,-2.3
2017-12-10T06:08:53.197Z,-2.2
2017-12-10T06:10:00.382Z,-2.2
2017-12-10T06:11:07.565Z,-2.2
2017-12-10T06:12:14.472Z,-2.2
2017-12-10T06:13:21.655Z,-2.2
2017-12-10T06:14:28.838Z,-2.2
2017-12-10T06:15:36.021Z,-2.2
2017-12-10T06:16:42.927Z,-2.2
2017-12-10T06:17:50.111Z,-2.2
2017-12-10T06:18:57.313Z,-2.2
2017-12-10T06:20:04.501Z,-2.2
2017-12-10T06:21:11.684Z,-2.2
2017-12-10T06:22:18.873Z,-2.2
2017-12-10T06:23:25.775Z,-2.2
2017-12-10T06:24:32.687Z,-2.2
2017-12-10T06:25:39.875Z,-2.2
2017-12-10T06:26:46.781Z,-2.2
2017-12-10T06:27:53.697Z,-2.2
2017-12-10T06:29:00.874Z,-2.2
2017-12-10T06:30:07.790Z,-2.2
2017-12-10T06:31:14.699Z,-2.2
2017-12-10T06:32:21.891Z,-2.2
2017-12-10T06:33:29.073Z,-2.2
2017-12-10T06:34:36.461Z,-2.2
2017-12-10T06:35:43.656Z,-2.2
2017-12-10T06:36:50.838Z,-2.2
2017-12-10T06:37:58.030Z,-2.2
2017-12-10T06:39:05.218Z,-2.2
2017-12-10T06:40:12.393Z,-2.2
2017-12-10T06:41:19.574Z,-2.2
2017-12-10T06:42:26.488Z,-2.2
2017-12-10T06:43:33.673Z,-2.2
2017-12-10T06:44:40.861Z,-2.2
2017-12-10T06:45:48.046Z,-2.2
2017-12-10T06:46:55.228Z,-2.2
2017-12-10T06:48:02.135Z,-2.2
2017-12-10T06:49:09.317Z,-2.2
2017-12-10T06:50:16.504Z,-2.2
2017-12-10T06:51:23.690Z,-2.2
2017-12-10T06:52:30.873Z,-2.2
2017-12-10T06:53:38.060Z,-2.2
2017-12-10T06:54:45.243Z,-2.2
2017-12-10T06:55:52.156Z,-2.2
2017-12-10T06:56:59.338Z,-2.3
2017-12-10T06:58:06.246Z,-2.3
2017-12-10T06:59:13.475Z,-2.3
2017-12-10T07:00:20.371Z,-2.3
2017-12-10T07:01:27.552Z,-2.3
2017-12-10T07:02:34.740Z,-2.3
2017-12-10T07:03:41.658Z,-2.3
2017-12-10T07:04:48.293Z,-2.3
2017-12-10T07:05:55.477Z,-2.3
2017-12-10T07:07:02.661Z,-2.3
2017-12-10T07:08:09.846Z,-2.3
2017-12-10T07:09:17.033Z,-2.3
2017-12-10T07:10:23.941Z,-2.3
2017-12-10T07:11:30.850Z,-2.3
2017-12-10T07:12:38.033Z,-2.3
2017-12-10T07:13:44.667Z,-2.3
2017-12-10T07:14:51.571Z,-2.3
2017-12-10T07:15:58.484Z,-2.3
2017-12-10T07:17:05.672Z,-2.3
2017-12-10T07:18:12.616Z,-2.2
2017-12-10T07:19:19.802Z,-2.2
2017-12-10T07:20:26.992Z,-2.2
2017-12-10T07:21:33.908Z,-2.2
2017-12-10T07:22:40.823Z,-2.2
2017-12-10T07:23:47.458Z,-2.2
2017-12-10T07:24:54.642Z,-2.1
2017-12-10T07:26:00.996Z,-2.1
2017-12-10T07:27:07.914Z,-2.1
2017-12-10T07:28:15.103Z,-2.1
2017-12-10T07:29:22.019Z,-2.1
2017-12-10T07:30:29.206Z,-2.1
2017-12-10T07:31:36.114Z,-2.1
2017-12-10T07:32:43.301Z,-2.1
2017-12-10T07:33:50.209Z,-2.1
2017-12-10T07:34:57.116Z,-2
2017-12-10T07:36:04.305Z,-2
2017-12-10T07:37:11.492Z,-2.1
2017-12-10T07:38:18.677Z,-2
2017-12-10T07:39:25.865Z,-2
2017-12-10T07:40:33.054Z,-2
2017-12-10T07:41:40.236Z,-2
2017-12-10T07:42:47.425Z,-2
2017-12-10T07:43:54.329Z,-2
2017-12-10T07:45:01.255Z,-2
2017-12-10T07:46:08.435Z,-2
2017-12-10T07:47:15.622Z,-2
2017-12-10T07:48:22.807Z,-2
2017-12-10T07:49:29.992Z,-2.1
2017-12-10T07:50:37.178Z,-2
2017-12-10T07:51:44.366Z,-2
2017-12-10T07:52:51.549Z,-2.1
2017-12-10T07:53:58.733Z,-2.1
2017-12-10T07:55:05.916Z,-2.1
2017-12-10T07:56:12.826Z,-2.1
2017-12-10T07:57:20.013Z,-2.1
2017-12-10T07:58:27.204Z,-2
2017-12-10T07:59:34.390Z,-2
2017-12-10T08:00:41.306Z,-2
2017-12-10T08:01:48.493Z,-2
2017-12-10T08:02:55.678Z,-2
2017-12-10T08:04:02.866Z,-2
2017-12-10T08:05:10.055Z,-2
2017-12-10T08:06:17.240Z,-2
2017-12-10T08:07:24.145Z,-2
2017-12-10T08:08:31.059Z,-2
2017-12-10T08:09:37.967Z,-2
2017-12-10T08:10:45.154Z,-2
2017-12-10T08:11:52.073Z,-1.9
2017-12-10T08:12:59.256Z,-1.9
2017-12-10T08:14:06.175Z,-1.8
2017-12-10T08:15:13.361Z,-1.8
2017-12-10T08:16:20.270Z,-1.8
2017-12-10T08:17:27.456Z,-1.8
2017-12-10T08:18:34.640Z,-1.8
2017-12-10T08:19:41.604Z,-1.7
2017-12-10T08:20:48.790Z,-1.7
2017-12-10T08:21:55.976Z,-1.8
2017-12-10T08:23:03.162Z,-1.7
2017-12-10T08:24:10.349Z,-1.7
2017-12-10T08:25:16.983Z,-1.7
2017-12-10T08:26:24.166Z,-1.7
2017-12-10T08:27:31.079Z,-1.7
2017-12-10T08:28:38.268Z,-1.7
2017-12-10T08:29:45.177Z,-1.7
2017-12-10T08:30:52.364Z,-1.7
2017-12-10T08:31:59.552Z,-1.6
2017-12-10T08:33:07.032Z,-1.6
2017-12-10T08:34:13.947Z,-1.6
2017-12-10T08:35:21.130Z,-1.6
2017-12-10T08:36:28.320Z,-1.6
2017-12-10T08:37:35.502Z,-1.6
2017-12-10T08:38:42.693Z,-1.6
2017-12-10T08:39:49.879Z,-1.6
2017-12-10T08:40:57.069Z,-1.6
2017-12-10T08:42:04.255Z,-1.6
2017-12-10T08:43:11.438Z,-1.5
2017-12-10T08:44:18.625Z,-1.5
2017-12-10T08:45:25.806Z,-1.4
2017-12-10T08:46:32.991Z,-1.3
2017-12-10T08:47:39.895Z,-1.3
2017-12-10T08:48:46.809Z,-1.4
2017-12-10T08:49:54.007Z,-1.4
2017-12-10T08:51:00.926Z,-1.4
2017-12-10T08:52:08.109Z,-1.4
2017-12-10T08:53:14.745Z,-1.4
2017-12-10T08:54:21.936Z,-1.4
2017-12-10T08:55:29.123Z,-1.4
2017-12-10T08:56:36.301Z,-1.4
2017-12-10T08:57:43.490Z,-1.3
2017-12-10T08:58:50.403Z,-1.3
2017-12-10T08:59:57.321Z,-1.3
2017-12-10T09:01:04.230Z,-1.3
2017-12-10T09:02:11.444Z,-1.2
2017-12-10T09:03:18.354Z,-1.3
2017-12-10T09:04:25.265Z,-1.3
2017-12-10T09:05:32.480Z,-1.3
2017-12-10T09:06:39.664Z,-1.3
2017-12-10T09:07:46.847Z,-1.3
2017-12-10T09:08:53.756Z,-1.3
2017-12-10T09:10:00.938Z,-1.3
2017-12-10T09:11:07.845Z,-1.3
2017-12-10T09:12:15.031Z,-1.3
2017-12-10T09:13:22.221Z,-1.3
2017-12-10T09:14:29.139Z,-1.3
2017-12-10T09:15:36.049Z,-1.3
2017-12-10T09:16:43.234Z,-1.3
2017-12-10T09:17:51.226Z,-1.3
2017-12-10T09:18:58.408Z,-1.2
2017-12-10T09:20:05.321Z,-1.2
2017-12-10T09:21:12.506Z,-1.3
2017-12-10T09:22:19.691Z,-1.3
2017-12-10T09:23:26.877Z,-1.3
2017-12-10T09:24:33.787Z,-1.2
2017-12-10T09:25:40.973Z,-1.2
2017-12-10T09:26:48.194Z,-1.2
2017-12-10T09:27:55.386Z,-1.2
2017-12-10T09:29:02.574Z,-1.2
2017-12-10T09:30:09.763Z,-1.1
2017-12-10T09:31:16.947Z,-1.1
2017-12-10T09:32:24.132Z,-1
2017-12-10T09:33:31.336Z,-1
2017-12-10T09:34:38.524Z,-1
2017-12-10T09:35:45.431Z,-1
2017-12-10T09:36:52.342Z,-1
2017-12-10T09:37:59.528Z,-1.1
2017-12-10T09:39:06.445Z,-1.1
2017-12-10T09:40:13.365Z,-1.1
2017-12-10T09:41:20.284Z,-1.1
2017-12-10T09:42:27.194Z,-1.2
2017-12-10T09:43:34.377Z,-1.2
2017-12-10T09:44:41.567Z,-1.3
2017-12-10T09:45:48.489Z,-1.2
2017-12-10T09:46:55.402Z,-1.3
2017-12-10T09:48:02.311Z,-1.3
2017-12-10T09:49:09.493Z,-1.3
2017-12-10T09:50:16.400Z,-1.3
2017-12-10T09:51:23.587Z,-1.3
2017-12-10T09:52:30.775Z,-1.3
2017-12-10T09:53:37.966Z,-1.3
2017-12-10T09:54:44.875Z,-1.3
2017-12-10T09:55:51.788Z,-1.4
2017-12-10T09:56:58.697Z,-1.4
2017-12-10T09:58:05.882Z,-1.3
2017-12-10T09:59:12.519Z,-1.3
2017-12-10T10:00:21.905Z,-1.3
2017-12-10T10:01:28.812Z,-1.2
2017-12-10T10:02:35.723Z,-1.2
2017-12-10T10:03:42.908Z,-1.2
2017-12-10T10:04:50.098Z,-1.2
2017-12-10T10:05:57.003Z,-1.1
2017-12-10T10:07:04.186Z,-1.1
2017-12-10T10:08:11.368Z,-1.2
2017-12-10T10:09:18.282Z,-1.2
2017-12-10T10:10:25.188Z,-1.2
2017-12-10T10:11:31.828Z,-1.1
2017-12-10T10:12:39.019Z,-1.1
2017-12-10T10:13:46.207Z,-1.1
2017-12-10T10:14:53.391Z,-1.2
2017-12-10T10:16:00.588Z,-1.2
2017-12-10T10:17:07.793Z,-1.1
2017-12-10T10:18:14.702Z,-1.2
2017-12-10T10:19:21.896Z,-1.1
2017-12-10T10:20:29.086Z,-1.3
2017-12-10T10:21:36.278Z,-1.2
2017-12-10T10:22:43.185Z,-1.1
2017-12-10T10:23:50.103Z,-1.2
2017-12-10T10:24:57.288Z,-1.2
2017-12-10T10:26:04.554Z,-1.2
2017-12-10T10:27:11.477Z,-1.1
2017-12-10T10:28:18.663Z,-1.1
2017-12-10T10:29:25.850Z,-1.1
2017-12-10T10:30:33.056Z,-1
2017-12-10T10:31:40.231Z,-0.9
2017-12-10T10:32:47.427Z,-0.9
2017-12-10T10:33:54.613Z,-0.9
2017-12-10T10:35:01.802Z,-0.8
2017-12-10T10:36:08.982Z,-0.9
2017-12-10T10:37:16.165Z,-0.9
2017-12-10T10:38:23.363Z,-0.8
2017-12-10T10:39:30.271Z,-0.8
2017-12-10T10:40:37.467Z,-0.8
2017-12-10T10:41:44.657Z,-0.8
2017-12-10T10:42:51.565Z,-0.9
2017-12-10T10:43:58.201Z,-0.9
2017-12-10T10:45:05.391Z,-1
2017-12-10T10:46:12.100Z,-1.1
2017-12-10T10:47:19.309Z,-1
2017-12-10T10:48:26.497Z,-1
2017-12-10T10:49:33.688Z,-1
2017-12-10T10:50:40.870Z,-1.1
2017-12-10T10:51:47.830Z,-1.2
2017-12-10T10:52:54.999Z,-1.2
2017-12-10T10:54:01.947Z,-1.3
2017-12-10T10:55:08.854Z,-1.2
2017-12-10T10:56:16.042Z,-1.2
2017-12-10T10:57:23.227Z,-1.3
2017-12-10T10:58:30.139Z,-1.2
2017-12-10T10:59:37.043Z,-1.3
2017-12-10T11:00:44.229Z,-1.2
2017-12-10T11:01:51.418Z,-1.2
2017-12-10T11:02:58.604Z,-1.2
2017-12-10T11:04:05.790Z,-1.3
2017-12-10T11:05:12.975Z,-1.3
2017-12-10T11:06:20.170Z,-1.3
2017-12-10T11:07:27.080Z,-1.3
2017-12-10T11:08:34.261Z,-1.3
2017-12-10T11:09:41.446Z,-1.3
2017-12-10T11:10:48.673Z,-1.3
2017-12-10T11:11:56.065Z,-1.3
2017-12-10T11:13:03.254Z,-1.3
2017-12-10T11:14:10.437Z,-1.3
2017-12-10T11:15:17.348Z,-1.3
2017-12-10T11:16:24.259Z,-1.3
2017-12-10T11:17:31.450Z,-1.3
2017-12-10T11:18:38.356Z,-1.3
2017-12-10T11:19:45.652Z,-1.3
2017-12-10T11:20:52.566Z,-1.4
2017-12-10T11:21:59.751Z,-1.3
2017-12-10T11:23:06.938Z,-1.4
2017-12-10T11:24:14.168Z,-1.3
2017-12-10T11:25:21.356Z,-1.4
2017-12-10T11:26:28.545Z,-1.5
2017-12-10T11:27:35.452Z,-1.5
2017-12-10T11:28:42.651Z,-1.5
2017-12-10T11:29:49.836Z,-1.5
2017-12-10T11:30:57.020Z,-1.5
2017-12-10T11:32:04.211Z,-1.5
2017-12-10T11:33:11.119Z,-1.5
2017-12-10T11:34:18.306Z,-1.6
2017-12-10T11:35:25.498Z,-1.6
2017-12-10T11:36:32.686Z,-1.6
2017-12-10T11:37:39.871Z,-1.6
2017-12-10T11:38:47.058Z,-1.6
2017-12-10T11:39:53.959Z,-1.6
2017-12-10T11:41:00.315Z,-1.6
2017-12-10T11:42:07.504Z,-1.6
2017-12-10T11:43:14.690Z,-1.6
2017-12-10T11:44:21.875Z,-1.7
2017-12-10T11:45:29.062Z,-1.7
2017-12-10T11:46:36.247Z,-1.7
2017-12-10T11:47:43.438Z,-1.8
2017-12-10T11:48:50.630Z,-1.7
2017-12-10T11:49:57.817Z,-1.7
2017-12-10T11:51:05.012Z,-1.7
2017-12-10T11:52:12.191Z,-1.8
2017-12-10T11:53:19.379Z,-1.9
2017-12-10T11:54:26.566Z,-1.8
2017-12-10T11:55:33.472Z,-1.8
2017-12-10T11:56:40.387Z,-1.8
2017-12-10T11:57:47.572Z,-1.8
2017-12-10T11:58:54.491Z,-1.8
2017-12-10T12:00:01.414Z,-1.8
2017-12-10T12:01:08.335Z,-1.7
2017-12-10T12:02:15.551Z,-1.7
2017-12-10T12:03:22.743Z,-1.7
2017-12-10T12:04:29.932Z,-1.7
2017-12-10T12:05:36.840Z,-1.7
2017-12-10T12:06:43.472Z,-1.8
2017-12-10T12:07:50.112Z,-1.8
2017-12-10T12:08:57.297Z,-1.8
2017-12-10T12:10:04.206Z,-1.9
2017-12-10T12:11:11.397Z,-1.8
2017-12-10T12:12:18.317Z,-1.8
2017-12-10T12:13:24.944Z,-1.8
2017-12-10T12:14:31.855Z,-1.8
2017-12-10T12:15:39.042Z,-1.8
2017-12-10T12:16:46.226Z,-1.8
2017-12-10T12:17:53.137Z,-1.8
2017-12-10T12:19:00.326Z,-1.8
2017-12-10T12:20:07.243Z,-1.8
2017-12-10T12:21:14.433Z,-1.9
2017-12-10T12:22:21.342Z,-1.9
2017-12-10T12:23:28.526Z,-1.9
2017-12-10T12:24:35.713Z,-1.9
2017-12-10T12:25:42.630Z,-1.9
2017-12-10T12:26:49.814Z,-2
2017-12-10T12:27:57.000Z,-2
2017-12-10T12:29:04.184Z,-2
2017-12-10T12:30:10.825Z,-2
2017-12-10T12:31:17.748Z,-1.9
2017-12-10T12:32:24.938Z,-1.9
2017-12-10T12:33:31.867Z,-2
2017-12-10T12:34:38.772Z,-1.9
2017-12-10T12:35:45.957Z,-1.9
2017-12-10T12:36:53.146Z,-2
2017-12-10T12:38:00.064Z,-2
2017-12-10T12:39:06.969Z,-2
2017-12-10T12:40:14.154Z,-2
2017-12-10T12:41:21.340Z,-2
2017-12-10T12:42:28.526Z,-2
2017-12-10T12:43:35.440Z,-2
2017-12-10T12:44:42.627Z,-2
2017-12-10T12:45:49.539Z,-2
2017-12-10T12:46:56.722Z,-2
2017-12-10T12:48:03.913Z,-2.1
2017-12-10T12:49:11.097Z,-2.1
2017-12-10T12:50:18.008Z,-2.1
2017-12-10T12:51:25.197Z,-2.1
2017-12-10T12:52:32.385Z,-2.1
2017-12-10T12:53:39.031Z,-2.1
2017-12-10T12:54:46.214Z,-2.1
2017-12-10T12:55:53.403Z,-2.1
2017-12-10T12:57:00.589Z,-2.1
2017-12-10T12:58:07.508Z,-2.1
2017-12-10T12:59:14.693Z,-2.2
2017-12-10T13:00:21.606Z,-2.2
2017-12-10T13:01:28.514Z,-2.2
2017-12-10T13:02:35.427Z,-2.2
2017-12-10T13:03:42.611Z,-2.2
2017-12-10T13:04:49.266Z,-2.3
2017-12-10T13:05:56.454Z,-2.3
2017-12-10T13:07:03.368Z,-2.3
2017-12-10T13:08:10.559Z,-2.3
2017-12-10T13:09:17.751Z,-2.3
2017-12-10T13:10:24.937Z,-2.3
2017-12-10T13:11:32.124Z,-2.4
2017-12-10T13:12:39.036Z,-2.4
2017-12-10T13:13:46.222Z,-2.4
2017-12-10T13:14:53.410Z,-2.4
2017-12-10T13:16:00.602Z,-2.3
2017-12-10T13:17:07.511Z,-2.3
2017-12-10T13:18:14.692Z,-2.3
2017-12-10T13:19:21.608Z,-2.3
2017-12-10T13:20:28.519Z,-2.3
2017-12-10T13:21:35.425Z,-2.3
2017-12-10T13:22:42.335Z,-2.3
2017-12-10T13:23:49.249Z,-2.3
2017-12-10T13:24:56.166Z,-2.3
2017-12-10T13:26:03.078Z,-2.2
2017-12-10T13:27:09.990Z,-2.3
2017-12-10T13:28:17.179Z,-2.2
2017-12-10T13:29:24.367Z,-2.3
2017-12-10T13:30:31.561Z,-2.2
2017-12-10T13:31:38.472Z,-2.2
2017-12-10T13:32:45.662Z,-2.2
2017-12-10T13:33:52.854Z,-2.2
2017-12-10T13:35:00.038Z,-2.2
2017-12-10T13:36:07.228Z,-2.2
2017-12-10T13:37:14.415Z,-2.2
2017-12-10T13:38:21.607Z,-2.2
2017-12-10T13:39:28.802Z,-2.2
2017-12-10T13:40:35.992Z,-2.2
2017-12-10T13:41:42.903Z,-2.2
2017-12-10T13:42:50.095Z,-2.2
2017-12-10T13:43:57.280Z,-2.2
2017-12-10T13:45:04.466Z,-2.2
2017-12-10T13:46:11.653Z,-2.2
2017-12-10T13:47:18.848Z,-2.1
2017-12-10T13:48:25.760Z,-2.2
2017-12-10T13:49:32.676Z,-2.2
2017-12-10T13:50:39.859Z,-2.2
2017-12-10T13:51:47.048Z,-2.2
2017-12-10T13:52:54.237Z,-2.2
2017-12-10T13:54:01.423Z,-2.2
2017-12-10T13:55:08.609Z,-2.2
2017-12-10T13:56:15.520Z,-2.2
2017-12-10T13:57:22.705Z,-2.2
2017-12-10T13:58:29.619Z,-2.2
2017-12-10T13:59:36.322Z,-2.2
2017-12-10T14:00:43.494Z,-2.2
2017-12-10T14:01:50.682Z,-2.2
2017-12-10T14:02:57.591Z,-2.2
2017-12-10T14:04:04.502Z,-2.2
2017-12-10T14:05:11.467Z,-2.2
2017-12-10T14:06:18.656Z,-2.2
2017-12-10T14:07:25.843Z,-2.1
2017-12-10T14:08:32.753Z,-2.1
2017-12-10T14:09:39.665Z,-2.1
2017-12-10T14:10:46.581Z,-2.1
2017-12-10T14:11:53.487Z,-2.1
2017-12-10T14:13:00.679Z,-2.1
2017-12-10T14:14:07.905Z,-2.1
2017-12-10T14:15:15.099Z,-2.1
2017-12-10T14:16:22.009Z,-2
2017-12-10T14:17:28.918Z,-2
2017-12-10T14:18:35.831Z,-2.1
2017-12-10T14:19:43.019Z,-2
2017-12-10T14:20:50.205Z,-2
2017-12-10T14:21:57.113Z,-2
2017-12-10T14:23:03.751Z,-2
2017-12-10T14:24:10.666Z,-2
2017-12-10T14:25:17.854Z,-2
2017-12-10T14:26:24.490Z,-2
2017-12-10T14:27:31.130Z,-2
2017-12-10T14:28:37.491Z,-2
2017-12-10T14:29:44.683Z,-2
2017-12-10T14:30:51.867Z,-2
2017-12-10T14:31:58.501Z,-2
2017-12-10T14:33:05.689Z,-1.9
2017-12-10T14:34:12.876Z,-2
2017-12-10T14:35:19.513Z,-2
2017-12-10T14:36:26.697Z,-2
2017-12-10T14:37:33.358Z,-2
2017-12-10T14:38:40.530Z,-1.9
2017-12-10T14:39:47.446Z,-1.9
2017-12-10T14:40:54.080Z,-1.9
2017-12-10T14:42:01.264Z,-1.9
2017-12-10T14:43:08.179Z,-1.9
2017-12-10T14:44:15.365Z,-1.9
2017-12-10T14:45:22.551Z,-1.9
2017-12-10T14:46:29.749Z,-1.9
2017-12-10T14:47:36.934Z,-1.9
2017-12-10T14:48:44.115Z,-1.8
2017-12-10T14:49:51.304Z,-1.8
2017-12-10T14:50:58.217Z,-1.8
2017-12-10T14:52:05.401Z,-1.8
2017-12-10T14:53:12.326Z,-1.8
2017-12-10T14:54:19.234Z,-1.8
2017-12-10T14:55:26.421Z,-1.8
2017-12-10T14:56:33.379Z,-1.8
2017-12-10T14:57:40.025Z,-1.8
2017-12-10T14:58:47.205Z,-1.8
2017-12-10T14:59:54.421Z,-1.8